createdAt,value
2019-02-17T00:22:31.124Z,89.90
2019-02-17T00:52:34.614Z,90.70
2019-02-17T01:22:38.033Z,91.30
2019-02-17T01:52:41.466Z,90.60
2019-02-17T02:22:44.921Z,92.10
2019-02-17T02:52:48.350Z,91.80
2019-02-17T03:22:51.816Z,91.20
2019-02-17T03:52:55.247Z,92.80
2019-02-17T04:23:00.316Z,93.10
2019-02-17T04:53:03.710Z,92.50
2019-02-17T05:23:07.134Z,92.20
2019-02-17T05:53:10.568Z,92.30
2019-02-17T06:23:13.974Z,93.70
2019-02-17T06:53:17.364Z,92.80
2019-02-17T07:23:20.850Z,91.00
2019-02-17T07:53:24.298Z,89.50
2019-02-17T08:23:27.709Z,84.10
2019-02-17T08:53:31.117Z,81.20
2019-02-17T09:23:34.505Z,68.10
2019-02-17T09:53:38.020Z,61.10
2019-02-17T10:23:41.584Z,53.60
2019-02-17T10:53:44.997Z,49.20
2019-02-17T11:23:48.384Z,44.10
2019-02-17T11:53:51.824Z,46.70
2019-02-17T12:24:10.766Z,44.20
2019-02-17T12:54:14.180Z,41.60
2019-02-17T15:00:55.767Z,39.60
2019-02-17T15:30:59.687Z,46.80
2019-02-17T16:01:04.532Z,50.40
2019-02-17T16:31:07.963Z,56.70
2019-02-17T17:01:11.359Z,62.70
2019-02-17T17:31:16.716Z,62.70
2019-02-17T18:01:20.216Z,65.40
2019-02-17T18:31:23.695Z,72.00
2019-02-17T19:01:27.096Z,73.40
2019-02-17T19:31:30.530Z,82.90
2019-02-17T20:01:34.489Z,78.50
2019-02-17T20:31:37.998Z,80.90
2019-02-17T21:01:41.411Z,82.40
2019-02-17T21:31:44.850Z,83.00
2019-02-17T22:01:48.304Z,89.60
2019-02-17T22:31:51.724Z,88.60
2019-02-17T23:01:55.156Z,86.10
2019-02-17T23:31:58.587Z,89.70
